Time;durP1;ratioP1;P1;durP2;ratioP2;P2;SDS_P1;SDS_P2;PMS_P1;PMS_P2;Temp;Humidity;BMP_temperature;BMP_pressure;BME280_temperature;BME280_humidity;BME280_pressure;Samples;Min_cycle;Max_cycle;Signal;HPM_P1;HPM_P2
2022/04/10 00:01:52;;;;;;;0.47;0.47;;;3.80;99.90;;;;;;5005327;28;20281;-76
2022/04/10 00:04:18;;;;;;;0.40;0.40;;;3.80;99.90;;;;;;5013001;28;20176;-76
2022/04/10 00:06:43;;;;;;;0.40;0.40;;;3.80;99.90;;;;;;4997960;28;20853;-76
2022/04/10 00:09:10;;;;;;;0.40;0.40;;;3.90;99.90;;;;;;5009070;28;20191;-76
2022/04/10 00:11:35;;;;;;;0.40;0.40;;;3.80;99.90;;;;;;5012171;28;20172;-76
2022/04/10 00:14:00;;;;;;;0.40;0.40;;;3.80;99.90;;;;;;5008399;28;21167;-76
2022/04/10 00:16:26;;;;;;;0.40;0.40;;;3.70;99.90;;;;;;5009950;28;20226;-77
2022/04/10 00:18:52;;;;;;;0.33;0.33;;;3.70;99.90;;;;;;5011336;28;20275;-76
2022/04/10 00:21:17;;;;;;;0.50;0.50;;;3.70;99.90;;;;;;5006893;28;20278;-76
2022/04/10 00:23:43;;;;;;;0.50;0.50;;;3.60;99.90;;;;;;5015476;28;20187;-76
2022/04/10 00:26:11;;;;;;;0.40;0.40;;;3.60;99.90;;;;;;5003808;28;20275;-76
2022/04/10 00:28:36;;;;;;;0.37;0.37;;;3.60;99.90;;;;;;5009235;28;20181;-77
2022/04/10 00:31:01;;;;;;;0.50;0.50;;;3.60;99.90;;;;;;5008440;28;20445;-76
2022/04/10 00:33:27;;;;;;;0.40;0.40;;;3.60;99.90;;;;;;5021911;28;20187;-76
2022/04/10 00:35:53;;;;;;;0.40;0.40;;;3.40;99.90;;;;;;5010235;28;20199;-76
2022/04/10 00:38:20;;;;;;;0.50;0.50;;;3.30;99.90;;;;;;5014562;28;20181;-76
2022/04/10 00:40:45;;;;;;;0.40;0.40;;;3.30;99.90;;;;;;5004856;28;20578;-76
2022/04/10 00:43:11;;;;;;;0.47;0.47;;;3.30;99.90;;;;;;5010374;28;20530;-76
2022/04/10 00:45:37;;;;;;;0.40;0.40;;;3.30;99.90;;;;;;4991642;28;20231;-76
2022/04/10 00:48:02;;;;;;;0.40;0.40;;;3.30;99.90;;;;;;5011281;28;20176;-76
2022/04/10 00:50:28;;;;;;;0.43;0.43;;;3.20;99.90;;;;;;5009124;28;20919;-76
2022/04/10 00:52:57;;;;;;;0.40;0.40;;;3.30;99.90;;;;;;5020019;28;20185;-77
2022/04/10 00:55:23;;;;;;;0.40;0.40;;;3.30;99.90;;;;;;5014401;28;20981;-76
2022/04/10 00:57:48;;;;;;;0.43;0.43;;;3.30;99.90;;;;;;5015027;28;20453;-76
2022/04/10 01:00:15;;;;;;;0.40;0.40;;;3.30;99.90;;;;;;4996257;28;20578;-76
2022/04/10 01:02:41;;;;;;;0.40;0.40;;;3.20;99.90;;;;;;5013927;28;20181;-76
2022/04/10 01:05:07;;;;;;;0.50;0.50;;;3.30;99.90;;;;;;5012275;28;21031;-77
2022/04/10 01:07:33;;;;;;;0.40;0.40;;;3.20;99.90;;;;;;5013682;28;20199;-77
2022/04/10 01:09:58;;;;;;;0.40;0.40;;;3.20;99.90;;;;;;5017369;28;21064;-76
2022/04/10 01:12:24;;;;;;;0.40;0.40;;;3.30;99.90;;;;;;5008182;28;20451;-76
2022/04/10 01:14:51;;;;;;;0.53;0.53;;;3.30;99.90;;;;;;5011760;28;20196;-77
2022/04/10 01:17:17;;;;;;;0.50;0.50;;;3.30;99.90;;;;;;5008462;28;20184;-76
2022/04/10 01:19:43;;;;;;;0.33;0.33;;;3.40;99.90;;;;;;5012999;28;20469;-77
2022/04/10 01:22:09;;;;;;;0.40;0.40;;;3.30;99.90;;;;;;5015450;28;20360;-76
2022/04/10 01:24:49;;;;;;;0.50;0.50;;;3.30;99.90;;;;;;5013880;28;20545;-76
2022/04/10 01:27:14;;;;;;;0.40;0.40;;;3.20;99.90;;;;;;5019289;28;20454;-76
2022/04/10 01:29:46;;;;;;;0.50;0.50;;;3.30;99.90;;;;;;5008940;28;20450;-77
2022/04/10 01:32:11;;;;;;;0.50;0.50;;;3.30;99.90;;;;;;5017244;28;20183;-76
2022/04/10 01:34:39;;;;;;;0.50;0.50;;;3.40;99.90;;;;;;5016813;28;20455;-76
2022/04/10 01:37:05;;;;;;;0.50;0.50;;;3.40;99.90;;;;;;5003338;28;20236;-76
2022/04/10 01:39:31;;;;;;;0.43;0.43;;;3.40;99.90;;;;;;5002101;28;20448;-76
2022/04/10 01:41:56;;;;;;;0.40;0.40;;;3.40;99.90;;;;;;5007129;28;20486;-76
2022/04/10 01:44:22;;;;;;;0.50;0.50;;;3.50;99.90;;;;;;5011119;28;20591;-76
2022/04/10 01:46:47;;;;;;;0.50;0.50;;;3.60;99.90;;;;;;5014773;28;20199;-76
2022/04/10 01:49:13;;;;;;;0.50;0.50;;;3.60;99.90;;;;;;5013083;28;20184;-77
2022/04/10 01:51:38;;;;;;;0.40;0.40;;;3.60;99.90;;;;;;5012175;28;20214;-77
2022/04/10 01:54:04;;;;;;;0.50;0.50;;;3.50;99.90;;;;;;5015809;28;20199;-77
2022/04/10 01:56:30;;;;;;;0.50;0.50;;;3.50;99.90;;;;;;5009613;28;20220;-77
2022/04/10 01:58:55;;;;;;;0.40;0.40;;;3.40;99.90;;;;;;5015601;28;20271;-76
2022/04/10 02:01:22;;;;;;;0.47;0.47;;;3.30;99.90;;;;;;5014475;28;20216;-76
2022/04/10 02:03:53;;;;;;;0.40;0.40;;;3.30;99.90;;;;;;5024929;28;20204;-76
2022/04/10 02:06:19;;;;;;;0.30;0.30;;;3.20;99.90;;;;;;4998924;28;20438;-77
2022/04/10 02:08:45;;;;;;;0.47;0.47;;;3.10;99.90;;;;;;5016794;28;20476;-76
2022/04/10 02:11:16;;;;;;;0.40;0.40;;;3.10;99.90;;;;;;5012198;28;20943;-77
2022/04/10 02:13:43;;;;;;;0.50;0.50;;;3.10;99.90;;;;;;5018945;28;20441;-77
2022/04/10 02:16:17;;;;;;;0.50;0.50;;;3.10;99.90;;;;;;5012258;28;21107;-77
2022/04/10 02:18:43;;;;;;;0.50;0.50;;;3.10;99.90;;;;;;5028662;28;20441;-77
2022/04/10 02:21:09;;;;;;;0.47;0.47;;;3.10;99.90;;;;;;5011982;28;20533;-76
2022/04/10 02:23:35;;;;;;;0.50;0.50;;;3.00;99.90;;;;;;5002576;28;20509;-76
2022/04/10 02:26:01;;;;;;;0.50;0.50;;;3.00;99.90;;;;;;5005755;28;20947;-76
2022/04/10 02:28:26;;;;;;;0.50;0.50;;;3.00;99.90;;;;;;5015712;28;20555;-77
2022/04/10 02:30:52;;;;;;;0.40;0.40;;;3.10;99.90;;;;;;5020710;28;20936;-77
2022/04/10 02:33:17;;;;;;;0.40;0.40;;;3.20;99.90;;;;;;5023418;28;20697;-77
2022/04/10 02:35:43;;;;;;;0.40;0.40;;;3.00;99.90;;;;;;5019330;28;20852;-76
2022/04/10 02:38:09;;;;;;;0.50;0.50;;;3.10;99.90;;;;;;5022039;28;20192;-76
2022/04/10 02:40:35;;;;;;;0.60;0.60;;;3.10;99.90;;;;;;5011707;28;20585;-79
2022/04/10 02:43:01;;;;;;;0.50;0.50;;;3.00;99.90;;;;;;5021118;28;21102;-79
2022/04/10 02:45:26;;;;;;;0.50;0.50;;;3.20;99.90;;;;;;5023497;28;20189;-76
2022/04/10 02:47:52;;;;;;;0.50;0.50;;;3.10;99.90;;;;;;5029536;28;20647;-76
2022/04/10 02:50:18;;;;;;;0.60;0.60;;;3.10;99.90;;;;;;5018402;28;20190;-79
2022/04/10 02:52:44;;;;;;;0.47;0.47;;;3.10;99.90;;;;;;5019248;28;20931;-77
2022/04/10 02:55:10;;;;;;;0.50;0.50;;;3.10;99.90;;;;;;5013794;28;20471;-78
2022/04/10 02:57:36;;;;;;;0.40;0.40;;;3.00;99.90;;;;;;5017657;28;20200;-79
2022/04/10 03:00:04;;;;;;;0.60;0.60;;;3.00;99.90;;;;;;5011728;28;20513;-78
2022/04/10 03:02:29;;;;;;;0.40;0.40;;;3.00;99.90;;;;;;5004070;28;21000;-78
2022/04/10 03:04:55;;;;;;;0.40;0.40;;;3.00;99.90;;;;;;5010389;28;20435;-78
2022/04/10 03:07:20;;;;;;;0.40;0.40;;;3.00;99.90;;;;;;5030556;28;20180;-78
2022/04/10 03:09:47;;;;;;;0.40;0.40;;;2.90;99.90;;;;;;5011694;28;20187;-78
2022/04/10 03:12:12;;;;;;;0.50;0.50;;;2.90;99.90;;;;;;4993340;28;20184;-78
2022/04/10 03:14:38;;;;;;;0.40;0.40;;;2.90;99.90;;;;;;5008838;28;21487;-79
2022/04/10 03:17:04;;;;;;;0.40;0.40;;;2.90;99.90;;;;;;5011415;28;20196;-78
2022/04/10 03:19:30;;;;;;;0.50;0.50;;;2.90;99.90;;;;;;4998248;28;20286;-78
2022/04/10 03:21:56;;;;;;;0.47;0.47;;;2.90;99.90;;;;;;5012850;28;20482;-78
2022/04/10 03:24:21;;;;;;;0.43;0.43;;;2.80;99.90;;;;;;4991816;28;20433;-78
2022/04/10 03:26:46;;;;;;;0.50;0.50;;;2.90;99.90;;;;;;5024409;28;20195;-78
2022/04/10 03:29:12;;;;;;;0.50;0.50;;;2.90;99.90;;;;;;5021439;28;20271;-78
2022/04/10 03:31:38;;;;;;;0.40;0.40;;;2.80;99.90;;;;;;5017272;28;20252;-78
2022/04/10 03:34:04;;;;;;;0.40;0.40;;;2.70;99.90;;;;;;5010861;28;20192;-79
2022/04/10 03:36:29;;;;;;;0.50;0.50;;;2.80;99.90;;;;;;5005823;28;20469;-78
2022/04/10 03:38:55;;;;;;;0.50;0.50;;;2.80;99.90;;;;;;5013634;28;20198;-78
2022/04/10 03:41:20;;;;;;;0.50;0.50;;;2.80;99.90;;;;;;5008996;28;20688;-78
2022/04/10 03:43:46;;;;;;;0.47;0.47;;;2.90;99.90;;;;;;5010373;28;20250;-77
2022/04/10 03:46:11;;;;;;;0.50;0.50;;;2.80;99.90;;;;;;5009785;28;20211;-78
2022/04/10 03:48:37;;;;;;;0.40;0.40;;;2.80;99.90;;;;;;5021943;28;20203;-77
2022/04/10 03:51:02;;;;;;;0.50;0.50;;;2.80;99.90;;;;;;5015398;28;20175;-77
2022/04/10 03:53:28;;;;;;;0.50;0.50;;;2.80;99.90;;;;;;4995658;28;20211;-78
2022/04/10 03:55:53;;;;;;;0.40;0.40;;;2.80;99.90;;;;;;5009778;28;20236;-78
2022/04/10 03:58:19;;;;;;;0.50;0.50;;;2.70;99.90;;;;;;5008003;28;20282;-77
2022/04/10 04:00:46;;;;;;;0.50;0.50;;;2.70;99.90;;;;;;5023096;28;20694;-77
2022/04/10 04:03:11;;;;;;;0.40;0.40;;;2.80;99.90;;;;;;5010658;28;20269;-77
2022/04/10 04:05:37;;;;;;;0.33;0.33;;;2.80;99.90;;;;;;5013300;28;20865;-77
2022/04/10 04:08:03;;;;;;;0.50;0.50;;;2.70;99.90;;;;;;5012737;28;20190;-77
2022/04/10 04:10:29;;;;;;;0.50;0.50;;;2.70;99.90;;;;;;5009537;28;20185;-77
2022/04/10 04:12:54;;;;;;;0.50;0.50;;;2.60;99.90;;;;;;5010957;28;20488;-77
2022/04/10 04:15:20;;;;;;;0.40;0.40;;;2.60;99.90;;;;;;5009932;28;20199;-77
2022/04/10 04:17:46;;;;;;;0.50;0.50;;;2.60;99.90;;;;;;5017116;28;20294;-77
2022/04/10 04:20:13;;;;;;;0.40;0.40;;;2.60;99.90;;;;;;4992760;28;20756;-77
2022/04/10 04:22:38;;;;;;;0.40;0.40;;;2.60;99.90;;;;;;5016500;28;20199;-77
2022/04/10 04:25:06;;;;;;;0.50;0.50;;;2.50;99.90;;;;;;4994047;28;20445;-77
2022/04/10 04:27:31;;;;;;;0.40;0.40;;;2.60;99.90;;;;;;5029976;28;20588;-77
2022/04/10 04:29:57;;;;;;;0.50;0.50;;;2.60;99.90;;;;;;4989080;28;20510;-77
2022/04/10 04:32:22;;;;;;;0.50;0.50;;;2.50;99.90;;;;;;5009789;28;20239;-77
2022/04/10 04:34:48;;;;;;;0.40;0.40;;;2.60;99.90;;;;;;4999617;28;20188;-77
2022/04/10 04:37:14;;;;;;;0.50;0.50;;;2.50;99.90;;;;;;5026217;28;20563;-77
2022/04/10 04:39:39;;;;;;;0.40;0.40;;;2.50;99.90;;;;;;5012159;28;20184;-77
2022/04/10 04:42:24;;;;;;;0.40;0.40;;;2.50;99.90;;;;;;5008989;28;20491;-77
2022/04/10 04:44:49;;;;;;;0.50;0.50;;;2.50;99.90;;;;;;5015033;28;20275;-77
2022/04/10 04:47:15;;;;;;;0.50;0.50;;;2.40;99.90;;;;;;5009602;28;20538;-77
2022/04/10 04:49:40;;;;;;;0.50;0.50;;;2.50;99.90;;;;;;5009925;28;20559;-77
2022/04/10 04:52:06;;;;;;;0.50;0.50;;;2.50;99.90;;;;;;5008681;28;20192;-77
2022/04/10 04:54:32;;;;;;;0.43;0.43;;;2.50;99.90;;;;;;5008966;28;20204;-77
2022/04/10 04:56:57;;;;;;;0.50;0.50;;;2.50;99.90;;;;;;5027255;28;20266;-78
2022/04/10 04:59:23;;;;;;;0.40;0.40;;;2.50;99.90;;;;;;5004071;28;20199;-77
2022/04/10 05:01:48;;;;;;;0.53;0.53;;;2.50;99.90;;;;;;4988677;28;20250;-77
2022/04/10 05:04:14;;;;;;;0.50;0.50;;;2.50;99.90;;;;;;5004127;28;20636;-79
2022/04/10 05:06:40;;;;;;;0.40;0.40;;;2.50;99.90;;;;;;5004203;28;20586;-78
2022/04/10 05:09:05;;;;;;;0.50;0.50;;;2.60;99.90;;;;;;5004719;28;20176;-77
2022/04/10 05:11:31;;;;;;;0.50;0.50;;;2.70;99.90;;;;;;5003459;28;20258;-77
2022/04/10 05:13:57;;;;;;;0.60;0.60;;;2.80;99.90;;;;;;5008123;28;20199;-76
2022/04/10 05:16:22;;;;;;;0.50;0.50;;;2.70;99.90;;;;;;5002774;28;20287;-77
2022/04/10 05:18:49;;;;;;;0.40;0.40;;;2.70;99.90;;;;;;4992927;28;20813;-77
2022/04/10 05:21:15;;;;;;;0.40;0.40;;;2.70;99.90;;;;;;5011562;28;20231;-77
2022/04/10 05:23:40;;;;;;;0.50;0.50;;;2.70;99.90;;;;;;5011738;28;21172;-77
2022/04/10 05:26:06;;;;;;;0.50;0.50;;;2.70;99.90;;;;;;5012177;28;20200;-77
2022/04/10 05:28:33;;;;;;;0.50;0.50;;;2.70;99.90;;;;;;5012725;28;20243;-78
2022/04/10 05:30:59;;;;;;;0.47;0.47;;;2.80;99.90;;;;;;5011488;28;20214;-78
2022/04/10 05:33:24;;;;;;;0.50;0.50;;;2.90;99.90;;;;;;5004824;28;20439;-77
2022/04/10 05:35:53;;;;;;;0.50;0.50;;;2.70;99.90;;;;;;5010846;28;20196;-78
2022/04/10 05:38:18;;;;;;;0.40;0.40;;;2.90;99.90;;;;;;5013214;28;20296;-78
2022/04/10 05:40:44;;;;;;;0.50;0.50;;;3.00;99.90;;;;;;5010920;28;20586;-77
2022/04/10 05:43:09;;;;;;;0.50;0.50;;;3.00;99.90;;;;;;5015188;28;20676;-78
2022/04/10 05:45:35;;;;;;;0.50;0.50;;;3.10;99.90;;;;;;4995029;28;20278;-77
2022/04/10 05:48:00;;;;;;;0.50;0.50;;;3.10;99.90;;;;;;5011808;28;20246;-77
2022/04/10 05:50:26;;;;;;;0.50;0.50;;;3.00;99.90;;;;;;5010158;28;20200;-77
2022/04/10 05:52:52;;;;;;;0.50;0.50;;;2.90;99.90;;;;;;5013022;28;20594;-77
2022/04/10 05:55:18;;;;;;;0.40;0.40;;;3.00;99.90;;;;;;5011726;28;20566;-77
2022/04/10 05:57:45;;;;;;;0.40;0.40;;;3.00;99.90;;;;;;5011705;28;20271;-78
2022/04/10 06:00:14;;;;;;;0.40;0.40;;;3.00;99.90;;;;;;4995241;28;20478;-77
2022/04/10 06:02:40;;;;;;;0.40;0.40;;;3.10;99.90;;;;;;5005980;28;20451;-78
2022/04/10 06:05:06;;;;;;;0.40;0.40;;;3.30;99.90;;;;;;5013822;28;20442;-78
2022/04/10 06:07:32;;;;;;;0.30;0.30;;;3.40;99.90;;;;;;5011984;28;20539;-77
2022/04/10 06:09:58;;;;;;;0.40;0.40;;;3.50;99.90;;;;;;4993479;28;20860;-77
2022/04/10 06:12:24;;;;;;;0.40;0.40;;;3.70;99.90;;;;;;5013859;28;20188;-77
2022/04/10 06:14:50;;;;;;;0.40;0.40;;;3.70;99.90;;;;;;5011186;28;20860;-77
2022/04/10 06:17:15;;;;;;;0.40;0.40;;;4.00;99.90;;;;;;5010648;28;20458;-77
2022/04/10 06:19:41;;;;;;;0.40;0.40;;;4.10;99.90;;;;;;4995135;28;20216;-77
2022/04/10 06:22:08;;;;;;;0.40;0.40;;;4.00;99.90;;;;;;4984378;28;20221;-77
2022/04/10 06:24:34;;;;;;;0.40;0.40;;;3.90;99.90;;;;;;5006932;28;20679;-77
2022/04/10 06:27:00;;;;;;;0.40;0.40;;;4.10;99.90;;;;;;5001395;28;20994;-77
2022/04/10 06:29:25;;;;;;;0.33;0.33;;;4.10;99.90;;;;;;5000994;28;20439;-78
2022/04/10 06:31:51;;;;;;;0.37;0.37;;;4.20;99.90;;;;;;5009043;28;20648;-77
2022/04/10 06:34:17;;;;;;;0.30;0.30;;;4.30;99.90;;;;;;5005473;28;20188;-77
2022/04/10 06:36:42;;;;;;;0.40;0.40;;;4.30;99.90;;;;;;5010508;28;20185;-77
2022/04/10 06:39:09;;;;;;;0.43;0.43;;;4.60;99.90;;;;;;5009259;28;20196;-77
2022/04/10 06:41:35;;;;;;;0.40;0.40;;;4.80;99.90;;;;;;5009368;28;20216;-77
2022/04/10 06:44:01;;;;;;;0.40;0.40;;;4.80;99.90;;;;;;5006475;28;20471;-77
2022/04/10 06:46:26;;;;;;;0.40;0.40;;;4.80;99.90;;;;;;4975972;28;20180;-77
2022/04/10 06:48:53;;;;;;;0.30;0.30;;;4.70;99.90;;;;;;4983056;28;20184;-77
2022/04/10 06:51:18;;;;;;;0.40;0.40;;;4.80;99.90;;;;;;5012919;28;20230;-76
2022/04/10 06:53:44;;;;;;;0.40;0.40;;;5.00;99.90;;;;;;5009270;28;20901;-77
2022/04/10 06:56:10;;;;;;;0.40;0.40;;;5.10;99.90;;;;;;4995802;28;20343;-77
2022/04/10 06:58:35;;;;;;;0.40;0.40;;;5.10;99.90;;;;;;5008976;28;20826;-77
2022/04/10 07:01:01;;;;;;;0.30;0.30;;;5.20;99.90;;;;;;4991336;28;20390;-76
2022/04/10 07:03:28;;;;;;;0.40;0.40;;;5.20;99.90;;;;;;5012490;28;20207;-77
2022/04/10 07:05:53;;;;;;;0.40;0.40;;;5.40;99.90;;;;;;4994360;28;20446;-77
2022/04/10 07:08:19;;;;;;;0.40;0.40;;;5.40;99.90;;;;;;5012774;28;20774;-77
2022/04/10 07:10:45;;;;;;;0.40;0.40;;;5.40;99.90;;;;;;5009658;28;20192;-77
2022/04/10 07:13:14;;;;;;;0.30;0.30;;;5.30;99.90;;;;;;5007656;28;20255;-76
2022/04/10 07:15:40;;;;;;;0.40;0.40;;;5.40;99.90;;;;;;4992243;28;20191;-76
2022/04/10 07:18:07;;;;;;;0.40;0.40;;;5.00;99.90;;;;;;5011660;28;20446;-76
2022/04/10 07:20:33;;;;;;;0.40;0.40;;;5.40;99.90;;;;;;5008541;28;20471;-77
2022/04/10 07:25:42;;;;;;;0.40;0.40;;;5.30;99.90;;;;;;5004867;28;20226;-76
2022/04/10 07:28:08;;;;;;;0.30;0.30;;;4.90;99.90;;;;;;5006353;28;20463;-76
2022/04/10 07:30:33;;;;;;;0.40;0.40;;;5.00;99.90;;;;;;4994817;28;20608;-76
2022/04/10 07:33:00;;;;;;;0.30;0.30;;;5.10;99.90;;;;;;5000969;28;20736;-77
2022/04/10 07:35:25;;;;;;;0.40;0.40;;;5.20;99.90;;;;;;4998553;28;20177;-77
2022/04/10 07:37:51;;;;;;;0.33;0.33;;;5.30;99.90;;;;;;4990497;28;20486;-77
2022/04/10 07:40:19;;;;;;;0.40;0.40;;;5.40;99.90;;;;;;4990895;28;20266;-77
2022/04/10 07:42:44;;;;;;;0.30;0.30;;;5.50;99.90;;;;;;5007410;28;20219;-77
2022/04/10 07:48:01;;;;;;;0.40;0.40;;;5.60;99.90;;;;;;4973722;28;20204;-77
2022/04/10 07:50:28;;;;;;;0.40;0.40;;;5.70;99.90;;;;;;4990008;28;20466;-77
2022/04/10 07:52:54;;;;;;;0.30;0.30;;;5.70;99.90;;;;;;4985258;28;20475;-77
2022/04/10 07:55:21;;;;;;;0.30;0.30;;;5.80;99.90;;;;;;5008989;28;20482;-77
2022/04/10 07:57:48;;;;;;;0.30;0.30;;;5.60;99.90;;;;;;5005075;28;20500;-77
2022/04/10 08:00:14;;;;;;;0.20;0.20;;;5.90;99.90;;;;;;5009049;28;20463;-77
2022/04/10 08:02:42;;;;;;;0.40;0.40;;;6.00;99.90;;;;;;5001719;28;20447;-77
2022/04/10 08:05:08;;;;;;;0.40;0.40;;;6.20;99.90;;;;;;5001088;28;20435;-78
2022/04/10 08:07:33;;;;;;;0.30;0.30;;;6.30;99.90;;;;;;5011667;28;20430;-77
2022/04/10 08:09:59;;;;;;;0.30;0.30;;;6.40;99.90;;;;;;5010320;28;20526;-78
2022/04/10 08:12:25;;;;;;;0.40;0.40;;;6.40;99.90;;;;;;5011630;28;20743;-77
2022/04/10 08:14:50;;;;;;;0.30;0.30;;;6.40;99.90;;;;;;4992769;28;20541;-77
2022/04/10 08:17:16;;;;;;;0.30;0.30;;;6.20;99.90;;;;;;5010872;28;20447;-77
2022/04/10 08:19:42;;;;;;;0.33;0.33;;;6.70;99.90;;;;;;4990949;28;20185;-77
2022/04/10 08:22:07;;;;;;;0.30;0.30;;;6.70;99.90;;;;;;5010492;28;20216;-77
2022/04/10 08:24:33;;;;;;;0.30;0.30;;;7.10;99.90;;;;;;5006602;28;20183;-77
2022/04/10 08:26:59;;;;;;;0.30;0.30;;;7.30;99.90;;;;;;5016370;28;20195;-77
2022/04/10 08:29:25;;;;;;;0.30;0.30;;;7.30;99.90;;;;;;5010831;28;20217;-78
2022/04/10 08:31:51;;;;;;;0.30;0.30;;;7.70;99.90;;;;;;4993700;28;20435;-78
2022/04/10 08:34:17;;;;;;;0.30;0.30;;;7.40;99.90;;;;;;5010004;28;20439;-78
2022/04/10 08:36:42;;;;;;;0.30;0.30;;;7.20;99.90;;;;;;5011026;28;20183;-78
2022/04/10 08:39:08;;;;;;;0.30;0.30;;;7.10;99.90;;;;;;5002203;28;21060;-77
2022/04/10 08:41:36;;;;;;;0.30;0.30;;;7.60;99.90;;;;;;5011148;28;20224;-77
2022/04/10 08:44:03;;;;;;;0.30;0.30;;;7.90;99.90;;;;;;5011196;28;20187;-77
2022/04/10 08:46:30;;;;;;;0.30;0.30;;;7.90;99.90;;;;;;5011153;28;20502;-77
2022/04/10 08:48:57;;;;;;;0.30;0.30;;;8.20;99.90;;;;;;5009956;28;20447;-77
2022/04/10 08:51:28;;;;;;;0.30;0.30;;;8.00;99.90;;;;;;5006901;28;20427;-78
2022/04/10 08:53:54;;;;;;;0.30;0.30;;;8.20;99.90;;;;;;5009616;28;20447;-77
2022/04/10 08:56:20;;;;;;;0.20;0.20;;;8.70;99.90;;;;;;5007617;28;21021;-77
2022/04/10 08:58:46;;;;;;;0.30;0.30;;;7.90;99.90;;;;;;5008351;28;20443;-78
2022/04/10 09:01:11;;;;;;;0.30;0.30;;;7.30;99.90;;;;;;5009284;28;20676;-77
2022/04/10 09:03:38;;;;;;;0.30;0.30;;;7.80;99.90;;;;;;4986348;28;20215;-78
2022/04/10 09:06:10;;;;;;;0.30;0.30;;;7.90;99.90;;;;;;5005216;28;20192;-77
2022/04/10 09:08:36;;;;;;;0.30;0.30;;;6.80;99.90;;;;;;5005270;28;20494;-77
2022/04/10 09:11:07;;;;;;;0.40;0.40;;;6.10;99.90;;;;;;5002157;28;21031;-77
2022/04/10 09:13:40;;;;;;;0.33;0.33;;;5.80;99.90;;;;;;5007151;28;20192;-77
2022/04/10 09:16:21;;;;;;;0.40;0.40;;;5.60;99.90;;;;;;5009391;28;20473;-77
2022/04/10 09:18:54;;;;;;;0.30;0.30;;;5.80;99.90;;;;;;5007778;28;20431;-77
2022/04/10 09:21:32;;;;;;;0.30;0.30;;;6.30;99.90;;;;;;5008675;28;20486;-77
2022/04/10 09:24:00;;;;;;;0.30;0.30;;;6.80;99.90;;;;;;5006014;28;20431;-77
2022/04/10 09:26:41;;;;;;;0.30;0.30;;;7.40;99.90;;;;;;4993886;28;20551;-77
2022/04/10 09:29:06;;;;;;;0.30;0.30;;;7.80;99.90;;;;;;5007521;28;20447;-77
2022/04/10 09:31:33;;;;;;;0.30;0.30;;;8.20;99.90;;;;;;5009677;28;20797;-78
2022/04/10 09:34:04;;;;;;;0.30;0.30;;;8.50;99.90;;;;;;4989504;28;20195;-77
2022/04/10 09:36:34;;;;;;;0.30;0.30;;;8.40;99.90;;;;;;5013171;28;20459;-77
2022/04/10 09:39:02;;;;;;;0.20;0.20;;;7.80;99.90;;;;;;5008623;28;20479;-77
2022/04/10 09:41:27;;;;;;;0.30;0.30;;;8.80;99.90;;;;;;5000248;28;20486;-75
2022/04/10 09:43:53;;;;;;;0.20;0.20;;;9.60;99.90;;;;;;5007398;28;21333;-75
2022/04/10 09:46:19;;;;;;;0.30;0.30;;;9.70;99.90;;;;;;4988978;28;20283;-76
2022/04/10 09:48:44;;;;;;;0.30;0.30;;;9.60;99.90;;;;;;5009561;28;20594;-75
2022/04/10 09:51:11;;;;;;;0.20;0.20;;;9.50;99.90;;;;;;5007749;28;20184;-75
2022/04/10 09:53:37;;;;;;;0.23;0.23;;;9.90;99.90;;;;;;5007482;28;20196;-76
2022/04/10 09:56:04;;;;;;;0.20;0.20;;;10.00;99.90;;;;;;4994259;28;20569;-75
2022/04/10 09:58:31;;;;;;;0.20;0.20;;;10.30;99.90;;;;;;5009348;28;20443;-75
2022/04/10 10:00:58;;;;;;;0.20;0.20;;;10.20;99.90;;;;;;5008460;28;20992;-75
2022/04/10 10:03:37;;;;;;;0.20;0.20;;;10.50;99.90;;;;;;5022060;28;20437;-76
2022/04/10 10:06:05;;;;;;;0.20;0.20;;;11.10;99.90;;;;;;5005574;28;20442;-76
2022/04/10 10:08:31;;;;;;;0.20;0.20;;;11.30;99.90;;;;;;5011800;28;20483;-76
2022/04/10 10:10:56;;;;;;;0.20;0.20;;;11.50;99.90;;;;;;5013340;28;20485;-76
2022/04/10 10:13:26;;;;;;;0.20;0.20;;;11.80;99.90;;;;;;5011768;28;20196;-75
2022/04/10 10:15:54;;;;;;;0.20;0.20;;;11.50;99.90;;;;;;5012449;28;20203;-76
2022/04/10 10:18:21;;;;;;;0.20;0.20;;;10.90;99.90;;;;;;5013509;28;20489;-75
2022/04/10 10:20:47;;;;;;;0.20;0.20;;;11.20;99.90;;;;;;5012761;28;20520;-76
2022/04/10 10:23:14;;;;;;;0.20;0.20;;;10.70;99.90;;;;;;5011424;28;20545;-76
2022/04/10 10:25:47;;;;;;;0.20;0.20;;;10.50;99.90;;;;;;5013574;28;20442;-76
2022/04/10 10:28:35;;;;;;;0.20;0.20;;;10.20;99.90;;;;;;5001750;28;20470;-77
2022/04/10 10:31:13;;;;;;;0.20;0.20;;;11.00;99.90;;;;;;5009920;28;20505;-77
2022/04/10 10:33:48;;;;;;;0.20;0.20;;;10.60;99.90;;;;;;5012293;28;20443;-74
2022/04/10 10:36:26;;;;;;;0.20;0.20;;;11.20;99.90;;;;;;5011817;28;20434;-74
2022/04/10 10:38:53;;;;;;;0.20;0.20;;;10.30;99.90;;;;;;5011047;28;20920;-75
2022/04/10 10:41:18;;;;;;;0.20;0.20;;;11.30;99.90;;;;;;5011177;28;20525;-75
2022/04/10 10:43:45;;;;;;;0.20;0.20;;;11.80;99.90;;;;;;5002604;28;20444;-74
2022/04/10 10:46:32;;;;;;;0.20;0.20;;;12.10;99.90;;;;;;5012795;28;20270;-77
2022/04/10 10:49:16;;;;;;;0.20;0.20;;;10.80;99.90;;;;;;4993155;28;20441;-75
2022/04/10 10:52:05;;;;;;;0.20;0.20;;;10.00;99.90;;;;;;5003579;28;20474;-77
2022/04/10 10:54:34;;;;;;;0.20;0.20;;;9.40;99.90;;;;;;4995510;28;20438;-76
2022/04/10 10:57:18;;;;;;;0.20;0.20;;;11.20;99.90;;;;;;4993964;28;20526;-75
2022/04/10 10:59:44;;;;;;;0.20;0.20;;;11.70;99.90;;;;;;5009370;28;20538;-75
2022/04/10 11:02:16;;;;;;;0.20;0.20;;;12.20;99.90;;;;;;5005425;28;20527;-77
2022/04/10 11:04:52;;;;;;;0.20;0.20;;;12.40;99.90;;;;;;5004132;28;21005;-78
2022/04/10 11:07:18;;;;;;;0.10;0.10;;;12.30;99.90;;;;;;4986497;28;20541;-78
2022/04/10 11:10:19;;;;;;;0.10;0.10;;;12.70;99.90;;;;;;5006525;28;20539;-75
2022/04/10 11:12:48;;;;;;;0.10;0.10;;;12.60;99.90;;;;;;4912911;29;20633;-75
2022/04/10 11:15:31;;;;;;;0.10;0.10;;;13.10;99.90;;;;;;4992092;28;20461;-72
2022/04/10 11:18:22;;;;;;;0.10;0.10;;;11.80;99.90;;;;;;4988040;28;20459;-74
2022/04/10 11:20:58;;;;;;;0.10;0.10;;;12.40;99.90;;;;;;5005039;28;20471;-74
2022/04/10 11:23:32;;;;;;;0.10;0.10;;;13.40;99.90;;;;;;5005305;28;21257;-75
2022/04/10 11:26:07;;;;;;;0.10;0.10;;;13.60;99.90;;;;;;5003760;28;20857;-75
2022/04/10 11:28:55;;;;;;;0.10;0.10;;;12.60;99.90;;;;;;5008638;28;20457;-75
2022/04/10 11:31:35;;;;;;;0.10;0.10;;;12.40;99.90;;;;;;5001882;28;20431;-74
2022/04/10 11:34:20;;;;;;;0.10;0.10;;;11.10;99.90;;;;;;5006537;28;20867;-74
2022/04/10 11:36:50;;;;;;;0.10;0.10;;;10.60;99.90;;;;;;4997502;28;20546;-73
2022/04/10 11:39:16;;;;;;;0.10;0.10;;;10.80;99.90;;;;;;4982012;28;20457;-74
2022/04/10 11:41:42;;;;;;;0.10;0.10;;;10.60;99.90;;;;;;4999702;28;20601;-74
2022/04/10 11:44:08;;;;;;;0.13;0.13;;;10.90;99.90;;;;;;5006650;28;20557;-74
2022/04/10 11:46:35;;;;;;;0.10;0.10;;;11.70;99.90;;;;;;5003329;28;20452;-74
2022/04/10 11:49:04;;;;;;;0.10;0.10;;;11.60;99.90;;;;;;5007161;28;20538;-76
2022/04/10 11:51:58;;;;;;;0.17;0.17;;;10.90;99.90;;;;;;4987073;28;20458;-75
2022/04/10 11:54:25;;;;;;;0.10;0.10;;;11.30;99.90;;;;;;5002083;28;20444;-75
2022/04/10 11:56:52;;;;;;;0.10;0.10;;;11.90;99.90;;;;;;5000029;28;20470;-74
2022/04/10 11:59:18;;;;;;;0.10;0.10;;;10.90;99.90;;;;;;5000610;28;20881;-75
2022/04/10 12:01:44;;;;;;;0.10;0.10;;;12.50;99.90;;;;;;5003390;28;20486;-75
2022/04/10 12:04:09;;;;;;;0.10;0.10;;;13.80;99.90;;;;;;5005647;28;20459;-75
2022/04/10 12:06:35;;;;;;;0.10;0.10;;;13.50;99.90;;;;;;4981576;28;20204;-74
2022/04/10 12:09:01;;;;;;;0.10;0.10;;;12.50;99.90;;;;;;5004893;28;20192;-73
2022/04/10 12:11:35;;;;;;;0.10;0.10;;;12.00;99.90;;;;;;5004631;28;20238;-74
2022/04/10 12:14:24;;;;;;;0.10;0.10;;;12.90;99.90;;;;;;4998603;28;20260;-74
2022/04/10 12:16:53;;;;;;;0.10;0.10;;;12.10;99.90;;;;;;5003699;28;20451;-74
2022/04/10 12:19:35;;;;;;;0.10;0.10;;;11.70;99.90;;;;;;4999040;28;20466;-73
2022/04/10 12:22:11;;;;;;;0.03;0.03;;;11.20;99.90;;;;;;4980061;28;20483;-74
2022/04/10 12:24:38;;;;;;;0.00;0.00;;;12.10;99.90;;;;;;5000667;28;20458;-74
2022/04/10 12:27:06;;;;;;;0.10;0.10;;;12.50;99.90;;;;;;5005503;28;20439;-74
2022/04/10 12:29:34;;;;;;;0.10;0.10;;;11.40;99.90;;;;;;5003682;28;20474;-73
2022/04/10 12:32:00;;;;;;;0.10;0.10;;;10.80;99.90;;;;;;4996902;28;20440;-75
2022/04/10 12:34:39;;;;;;;0.10;0.10;;;10.40;99.90;;;;;;5006211;28;20441;-72
2022/04/10 12:37:08;;;;;;;0.10;0.10;;;10.80;99.90;;;;;;5004155;28;20466;-74
2022/04/10 12:39:33;;;;;;;0.10;0.10;;;11.30;99.90;;;;;;4993815;28;20432;-74
2022/04/10 12:42:09;;;;;;;0.10;0.10;;;11.10;99.90;;;;;;4985758;28;20517;-71
2022/04/10 12:44:39;;;;;;;0.10;0.10;;;10.70;99.90;;;;;;4989716;28;20184;-74
2022/04/10 12:47:06;;;;;;;0.10;0.10;;;9.80;99.90;;;;;;5009880;28;20451;-74
2022/04/10 12:49:32;;;;;;;0.10;0.10;;;9.90;99.90;;;;;;4996880;28;20444;-72
2022/04/10 12:52:00;;;;;;;0.20;0.20;;;10.70;99.90;;;;;;5001457;28;20443;-74
2022/04/10 12:54:42;;;;;;;0.10;0.10;;;12.00;99.90;;;;;;5008135;28;20422;-74
2022/04/10 12:57:13;;;;;;;0.10;0.10;;;13.30;99.90;;;;;;5006681;28;20446;-75
2022/04/10 12:59:44;;;;;;;0.07;0.07;;;13.70;99.90;;;;;;5002779;28;20446;-76
2022/04/10 13:02:27;;;;;;;0.00;0.00;;;14.60;99.90;;;;;;5002975;28;20533;-75
2022/04/10 13:05:16;;;;;;;0.00;0.00;;;14.20;99.90;;;;;;4976510;28;21075;-75